• Join FlightAware (Why Join?)
  • Login
  • US Flag 
12:12PM EST


 

Airport Tracker/Info


-or-


 

Live Flight TrackerFlight Track Log ✈ N211RN ✈ 04-May-2014 ✈ KAGC - KMDW

Flight Track Log - Related Links

Times and Time Zones

All times are in EDT time to prevent confusion due to time zone crossing. See the N211RN flight status page for this flight to view local times or setup timezone preferences in your user account.

Time Position Orientation Groundspeed Altitude Reporting Facility
EDT Latitude Longitude Course Direction KTS MPH feet Rate Location/Type
06:03AM 40.3872 -79.8875 290° West 219 252 3,700  Level Cleveland Center
06:04AM 40.4072 -79.9586 290° West 222 255 8,500 3,780 Climbing Cleveland Center
06:05AM 40.4161 -80.0389 278° West 268 308 11,400 2,640 Climbing Cleveland Center
06:06AM 40.4419 -80.1381 289° West 288 331 13,900 2,940 Climbing Cleveland Center
06:07AM 40.4692 -80.2489 288° West 313 360 17,300 2,820 Climbing Cleveland Center
06:08AM 40.4961 -80.3653 287° West 318 366 19,600 2,400 Climbing Cleveland Center
06:09AM 40.5244 -80.4836 288° West 337 388 22,200 2,640 Climbing Cleveland Center
06:10AM 40.5514 -80.5992 287° West 334 384 24,900 2,520 Climbing Cleveland Center
06:11AM 40.5758 -80.7156 285° West 333 383 27,300 2,100 Climbing Cleveland Center
06:12AM 40.6003 -80.8361 285° West 338 389 29,200 1,860 Climbing Cleveland Center
06:13AM 40.6247 -80.9564 285° West 341 392 31,100 1,920 Climbing Cleveland Center
06:14AM 40.6486 -81.0814 284° West 344 396 33,100 1,920 Climbing Cleveland Center
06:15AM 40.6722 -81.2019 285° West 338 389 35,000 1,380 Climbing Cleveland Center
06:16AM 40.6978 -81.3244 285° West 341 392 36,000 480 Climbing Cleveland Center
06:17AM 40.7231 -81.4550 284° West 358 412 36,000  Level Cleveland Center
06:18AM 40.7483 -81.5850 284° West 361 415 36,000  Level Cleveland Center
06:19AM 40.7739 -81.7147 285° West 361 415 36,000  Level Cleveland Center
06:20AM 40.7992 -81.8461 284° West 361 415 36,000  Level Cleveland Center
06:21AM 40.8242 -81.9756 284° West 362 417 36,000  Level Cleveland Center
06:22AM 40.8492 -82.1058 284° West 361 415 36,000  Level Cleveland Center
06:23AM 40.8739 -82.2367 284° West 361 415 36,000  Level Cleveland Center
06:24AM 40.8983 -82.3672 284° West 361 415 36,000  Level Cleveland Center
06:25AM 40.9236 -82.4994 284° West 364 419 36,000  Level Cleveland Center
06:26AM 40.9483 -82.6317 284° West 365 420 36,000  Level Cleveland Center
06:27AM 40.9728 -82.7647 284° West 367 422 36,000  Level Cleveland Center
06:28AM 40.9981 -82.8975 284° West 368 423 36,000  Level Cleveland Center
06:29AM 41.0219 -83.0314 283° West 368 423 36,000  Level Cleveland Center
06:30AM 41.0464 -83.1633 284° West 368 423 36,000  Level Cleveland Center
06:31AM 41.0686 -83.2928 283° West 367 422 36,000  Level Cleveland Center
06:32AM 41.0928 -83.4250 284° West 367 422 36,000  Level Cleveland Center
06:33AM 41.1139 -83.5436 283° West 367 422 36,000  Level Cleveland Center
06:34AM 41.1414 -83.7022 283° West 367 422 36,000  Level Cleveland Center
06:35AM 41.1647 -83.8328 283° West 367 422 36,000  Level Cleveland Center
06:36AM 41.1861 -83.9583 283° West 367 422 36,000  Level Cleveland Center
06:37AM 41.2092 -84.0897 283° West 367 422 36,000 -120 Level Cleveland Center
06:38AM 41.2319 -84.2203 283° West 367 422 35,800 -1,080 Descending Cleveland Center
06:39AM 41.2533 -84.3511 282° West 364 419 33,900 -1,920 Descending Cleveland Center
06:40AM 41.2761 -84.4817 283° West 364 419 32,000 -1,740 Descending Cleveland Center
06:41AM 41.2978 -84.6128 282° West 363 418 30,400 -1,200 Descending Cleveland Center
06:42AM 41.3122 -84.7186 280° West 364 419 30,000 -240 Descending Chicago Center
06:43AM 41.3233 -84.8533 276° West 365 420 30,000 -540 Level Chicago Center
06:44AM 41.3364 -84.9886 277° West 366 421 29,000 -1,200 Descending Chicago Center
06:45AM 41.3489 -85.1278 277° West 373 429 27,600 -1,500 Descending Chicago Center
06:46AM 41.3614 -85.2664 277° West 374 430 26,100 -1,380 Descending Chicago Center
06:47AM 41.3722 -85.3797 277° West 377 434 24,900 -1,080 Descending Chicago Center
06:48AM 41.3842 -85.5219 276° West 379 436 24,000 -600 Descending Chicago Center
06:49AM 41.3958 -85.6581 277° West 374 430 23,800 -600 Descending Chicago Center
06:50AM 41.4078 -85.7919 277° West 363 418 22,800 -1,560 Descending Chicago Center
06:51AM 41.4192 -85.9181 277° West 345 397 20,700 -2,160 Descending Chicago Center
06:52AM 41.4289 -86.0453 276° West 346 398 18,500 -2,280 Descending Chicago Center
06:53AM 41.4389 -86.1650 276° West 330 380 16,200 -2,340 Descending Chicago Center
06:54AM 41.4478 -86.2792 276° West 312 359 13,900 -2,100 Descending Chicago Center
06:55AM 41.4572 -86.3869 277° West 296 341 12,000 -1,680 Descending Chicago Center
06:56AM 41.4664 -86.4989 276° West 300 345 10,600 -1,020 Descending Chicago Center
06:57AM 41.4742 -86.6042 276° West 287 330 10,000 -600 Descending Chicago Center
06:58AM 41.4847 -86.7172 277° West 251 289 9,500 -840 Descending Chicago Center
06:59AM 41.4922 -86.8033 277° West 236 272 8,400 -1,140 Descending Chicago Center
07:00AM 41.4986 -86.8942 275° West 244 281 7,300 -1,140 Descending Chicago Center
07:01AM 41.5050 -86.9958 275° West 255 293 6,200 -660 Descending Chicago Center
07:02AM 41.5119 -87.0936 275° West 265 305 6,000 -120 Descending Chicago Center
07:03AM 41.5239 -87.1914 279° West 268 308 6,000 -120 Level Chicago Center
07:04AM 41.5539 -87.2767 295° West 253 291 5,800 -900 Descending Chicago Center
07:05AM 41.5811 -87.3522 296° West 228 262 4,300 -900 Descending Chicago Center
07:06AM 41.6089 -87.4311 295° West 233 268 4,000 -180 Descending Chicago Center
07:07AM 41.6383 -87.5136 296° West 244 281 4,000  Level Chicago Center
07:08AM 41.6617 -87.5797 295° West 195 224 4,000 -480 Level Chicago Center
07:09AM 41.6972 -87.6289 314° West 185 213 3,100 -1,020 Descending Chicago Center
07:10AM 41.7336 -87.6817 313° West 181 208 2,000 -960 Descending Chicago Center
07:11AM 41.7600 -87.7175 315° West 132 152 1,200 -660 Descending Chicago Center
07:12AM 41.7831 -87.7511 313° West 124 143 700 -540 Descending Chicago Center